sensor_id;sensor_type;location;lat;lon;timestamp;temperature;humidity
63435;DHT22;68814;50.872;5.306;2023-12-29T00:00:07;10.80;99.90
63435;DHT22;68814;50.872;5.306;2023-12-29T00:02:34;10.70;99.90
63435;DHT22;68814;50.872;5.306;2023-12-29T00:05:00;10.80;99.90
63435;DHT22;68814;50.872;5.306;2023-12-29T00:07:27;10.80;99.90
63435;DHT22;68814;50.872;5.306;2023-12-29T00:09:54;10.80;99.90
63435;DHT22;68814;50.872;5.306;2023-12-29T00:15:34;10.80;99.90
63435;DHT22;68814;50.872;5.306;2023-12-29T00:18:00;10.80;99.90
63435;DHT22;68814;50.872;5.306;2023-12-29T00:20:26;10.80;99.90
63435;DHT22;68814;50.872;5.306;2023-12-29T00:22:52;10.70;99.90
63435;DHT22;68814;50.872;5.306;2023-12-29T00:25:19;10.80;99.90
63435;DHT22;68814;50.872;5.306;2023-12-29T00:27:46;10.80;99.90
63435;DHT22;68814;50.872;5.306;2023-12-29T00:30:12;10.80;99.90
63435;DHT22;68814;50.872;5.306;2023-12-29T00:32:37;10.80;99.90
63435;DHT22;68814;50.872;5.306;2023-12-29T00:35:03;10.80;99.90
63435;DHT22;68814;50.872;5.306;2023-12-29T00:37:34;10.80;99.90
63435;DHT22;68814;50.872;5.306;2023-12-29T00:39:59;10.80;99.90
63435;DHT22;68814;50.872;5.306;2023-12-29T00:42:32;10.70;99.90
63435;DHT22;68814;50.872;5.306;2023-12-29T00:44:58;10.70;99.90
63435;DHT22;68814;50.872;5.306;2023-12-29T00:47:28;10.70;99.90
63435;DHT22;68814;50.872;5.306;2023-12-29T00:49:54;10.70;99.90
63435;DHT22;68814;50.872;5.306;2023-12-29T00:52:20;10.70;99.90
63435;DHT22;68814;50.872;5.306;2023-12-29T00:54:49;10.70;99.90
63435;DHT22;68814;50.872;5.306;2023-12-29T00:57:15;10.70;99.90
63435;DHT22;68814;50.872;5.306;2023-12-29T00:59:48;10.70;99.90
63435;DHT22;68814;50.872;5.306;2023-12-29T01:02:14;10.70;99.90
63435;DHT22;68814;50.872;5.306;2023-12-29T01:04:43;10.70;99.90
63435;DHT22;68814;50.872;5.306;2023-12-29T01:07:10;10.70;99.90
63435;DHT22;68814;50.872;5.306;2023-12-29T01:09:38;10.70;99.90
63435;DHT22;68814;50.872;5.306;2023-12-29T01:12:06;10.70;99.90
63435;DHT22;68814;50.872;5.306;2023-12-29T01:14:31;10.70;99.90
63435;DHT22;68814;50.872;5.306;2023-12-29T01:16:58;10.70;99.90
63435;DHT22;68814;50.872;5.306;2023-12-29T01:19:25;10.70;99.90
63435;DHT22;68814;50.872;5.306;2023-12-29T01:21:51;10.70;99.90
63435;DHT22;68814;50.872;5.306;2023-12-29T01:24:17;10.70;99.90
63435;DHT22;68814;50.872;5.306;2023-12-29T01:26:43;10.70;99.90
63435;DHT22;68814;50.872;5.306;2023-12-29T01:29:09;10.70;99.90
63435;DHT22;68814;50.872;5.306;2023-12-29T01:31:36;10.70;99.90
63435;DHT22;68814;50.872;5.306;2023-12-29T01:34:02;10.70;99.90
63435;DHT22;68814;50.872;5.306;2023-12-29T01:36:30;10.70;99.90
63435;DHT22;68814;50.872;5.306;2023-12-29T01:38:56;10.70;99.90
63435;DHT22;68814;50.872;5.306;2023-12-29T01:41:24;10.70;99.90
63435;DHT22;68814;50.872;5.306;2023-12-29T01:46:33;10.70;99.90
63435;DHT22;68814;50.872;5.306;2023-12-29T01:49:00;10.70;99.90
63435;DHT22;68814;50.872;5.306;2023-12-29T01:51:52;10.70;99.90
63435;DHT22;68814;50.872;5.306;2023-12-29T01:54:19;10.70;99.90
63435;DHT22;68814;50.872;5.306;2023-12-29T01:56:46;10.70;99.90
63435;DHT22;68814;50.872;5.306;2023-12-29T01:59:13;10.70;99.90
63435;DHT22;68814;50.872;5.306;2023-12-29T02:01:40;10.70;99.90
63435;DHT22;68814;50.872;5.306;2023-12-29T02:04:15;10.70;99.90
63435;DHT22;68814;50.872;5.306;2023-12-29T02:06:43;10.70;99.90
63435;DHT22;68814;50.872;5.306;2023-12-29T02:09:09;10.60;99.90
63435;DHT22;68814;50.872;5.306;2023-12-29T02:11:35;10.60;99.90
63435;DHT22;68814;50.872;5.306;2023-12-29T02:14:01;10.70;99.90
63435;DHT22;68814;50.872;5.306;2023-12-29T02:16:38;10.70;99.90
63435;DHT22;68814;50.872;5.306;2023-12-29T02:19:40;10.60;99.90
63435;DHT22;68814;50.872;5.306;2023-12-29T02:22:07;10.60;99.90
63435;DHT22;68814;50.872;5.306;2023-12-29T02:24:34;10.70;99.90
63435;DHT22;68814;50.872;5.306;2023-12-29T02:32:59;10.60;99.90
63435;DHT22;68814;50.872;5.306;2023-12-29T02:35:30;10.60;99.90
63435;DHT22;68814;50.872;5.306;2023-12-29T02:37:59;10.60;99.90
63435;DHT22;68814;50.872;5.306;2023-12-29T02:40:28;10.60;99.90
63435;DHT22;68814;50.872;5.306;2023-12-29T02:42:54;10.60;99.90
63435;DHT22;68814;50.872;5.306;2023-12-29T02:45:44;10.60;99.90
63435;DHT22;68814;50.872;5.306;2023-12-29T02:48:19;10.60;99.90
63435;DHT22;68814;50.872;5.306;2023-12-29T02:50:45;10.60;99.90
63435;DHT22;68814;50.872;5.306;2023-12-29T02:53:13;10.50;99.90
63435;DHT22;68814;50.872;5.306;2023-12-29T02:55:38;10.50;99.90
63435;DHT22;68814;50.872;5.306;2023-12-29T02:58:04;10.50;99.90
63435;DHT22;68814;50.872;5.306;2023-12-29T03:00:33;10.50;99.90
63435;DHT22;68814;50.872;5.306;2023-12-29T03:03:00;10.50;99.90
63435;DHT22;68814;50.872;5.306;2023-12-29T03:05:26;10.50;99.90
63435;DHT22;68814;50.872;5.306;2023-12-29T03:07:52;10.60;99.90
63435;DHT22;68814;50.872;5.306;2023-12-29T03:10:24;10.60;99.90
63435;DHT22;68814;50.872;5.306;2023-12-29T03:12:50;10.60;99.90
63435;DHT22;68814;50.872;5.306;2023-12-29T03:15:17;10.60;99.90
63435;DHT22;68814;50.872;5.306;2023-12-29T03:17:43;10.70;99.90
63435;DHT22;68814;50.872;5.306;2023-12-29T03:20:09;10.60;99.90
63435;DHT22;68814;50.872;5.306;2023-12-29T03:22:36;10.70;99.90
63435;DHT22;68814;50.872;5.306;2023-12-29T03:25:02;10.70;99.90
63435;DHT22;68814;50.872;5.306;2023-12-29T03:27:29;10.70;99.90
63435;DHT22;68814;50.872;5.306;2023-12-29T03:29:56;10.70;99.90
63435;DHT22;68814;50.872;5.306;2023-12-29T03:32:26;10.80;99.90
63435;DHT22;68814;50.872;5.306;2023-12-29T03:34:52;10.80;99.90
63435;DHT22;68814;50.872;5.306;2023-12-29T03:37:20;10.80;99.90
63435;DHT22;68814;50.872;5.306;2023-12-29T03:39:48;10.80;99.90
63435;DHT22;68814;50.872;5.306;2023-12-29T03:42:14;10.80;99.90
63435;DHT22;68814;50.872;5.306;2023-12-29T03:44:40;10.80;99.90
63435;DHT22;68814;50.872;5.306;2023-12-29T03:47:07;10.70;99.90
63435;DHT22;68814;50.872;5.306;2023-12-29T03:49:33;10.80;99.90
63435;DHT22;68814;50.872;5.306;2023-12-29T03:52:04;10.70;99.90
63435;DHT22;68814;50.872;5.306;2023-12-29T03:54:31;10.70;99.90
63435;DHT22;68814;50.872;5.306;2023-12-29T03:56:57;10.70;99.90
63435;DHT22;68814;50.872;5.306;2023-12-29T03:59:24;10.70;99.90
63435;DHT22;68814;50.872;5.306;2023-12-29T04:01:50;10.70;99.90
63435;DHT22;68814;50.872;5.306;2023-12-29T04:04:17;10.70;99.90
63435;DHT22;68814;50.872;5.306;2023-12-29T04:06:43;10.70;99.90
63435;DHT22;68814;50.872;5.306;2023-12-29T04:09:11;10.60;99.90
63435;DHT22;68814;50.872;5.306;2023-12-29T04:11:38;10.70;99.90
63435;DHT22;68814;50.872;5.306;2023-12-29T04:17:51;10.60;99.90
63435;DHT22;68814;50.872;5.306;2023-12-29T04:20:21;10.60;99.90
63435;DHT22;68814;50.872;5.306;2023-12-29T04:22:46;10.50;99.90
63435;DHT22;68814;50.872;5.306;2023-12-29T04:25:13;10.60;99.90
63435;DHT22;68814;50.872;5.306;2023-12-29T04:27:40;10.50;99.90
63435;DHT22;68814;50.872;5.306;2023-12-29T04:30:10;10.50;99.90
63435;DHT22;68814;50.872;5.306;2023-12-29T04:32:37;10.50;99.90
63435;DHT22;68814;50.872;5.306;2023-12-29T04:35:05;10.60;99.90
63435;DHT22;68814;50.872;5.306;2023-12-29T04:37:32;10.50;99.90
63435;DHT22;68814;50.872;5.306;2023-12-29T04:39:58;10.50;99.90
63435;DHT22;68814;50.872;5.306;2023-12-29T04:42:32;10.50;99.90
63435;DHT22;68814;50.872;5.306;2023-12-29T04:44:59;10.50;99.90
63435;DHT22;68814;50.872;5.306;2023-12-29T04:47:25;10.40;99.90
63435;DHT22;68814;50.872;5.306;2023-12-29T04:49:51;10.40;99.90
63435;DHT22;68814;50.872;5.306;2023-12-29T04:52:19;10.40;99.90
63435;DHT22;68814;50.872;5.306;2023-12-29T04:54:46;10.40;99.90
63435;DHT22;68814;50.872;5.306;2023-12-29T04:57:12;10.30;99.90
63435;DHT22;68814;50.872;5.306;2023-12-29T04:59:38;10.30;99.90
63435;DHT22;68814;50.872;5.306;2023-12-29T05:02:04;10.30;99.90
63435;DHT22;68814;50.872;5.306;2023-12-29T05:04:30;10.30;99.90
63435;DHT22;68814;50.872;5.306;2023-12-29T05:06:55;10.30;99.90
63435;DHT22;68814;50.872;5.306;2023-12-29T05:09:21;10.20;99.90
63435;DHT22;68814;50.872;5.306;2023-12-29T05:11:48;10.20;99.90
63435;DHT22;68814;50.872;5.306;2023-12-29T05:14:18;10.20;99.90
63435;DHT22;68814;50.872;5.306;2023-12-29T05:16:44;10.20;99.90
63435;DHT22;68814;50.872;5.306;2023-12-29T05:19:12;10.20;99.90
63435;DHT22;68814;50.872;5.306;2023-12-29T05:21:43;10.20;99.90
63435;DHT22;68814;50.872;5.306;2023-12-29T05:24:09;10.20;99.90
63435;DHT22;68814;50.872;5.306;2023-12-29T05:26:36;10.20;99.90
63435;DHT22;68814;50.872;5.306;2023-12-29T05:29:03;10.20;99.90
63435;DHT22;68814;50.872;5.306;2023-12-29T05:31:29;10.20;99.90
63435;DHT22;68814;50.872;5.306;2023-12-29T05:33:56;10.30;99.90
63435;DHT22;68814;50.872;5.306;2023-12-29T05:36:21;10.30;99.90
63435;DHT22;68814;50.872;5.306;2023-12-29T05:38:47;10.30;99.90
63435;DHT22;68814;50.872;5.306;2023-12-29T05:41:13;10.30;99.90
63435;DHT22;68814;50.872;5.306;2023-12-29T05:43:40;10.40;99.90
63435;DHT22;68814;50.872;5.306;2023-12-29T05:46:12;10.40;99.90
63435;DHT22;68814;50.872;5.306;2023-12-29T05:48:39;10.40;99.90
63435;DHT22;68814;50.872;5.306;2023-12-29T05:51:13;10.40;99.90
63435;DHT22;68814;50.872;5.306;2023-12-29T05:53:39;10.50;99.90
63435;DHT22;68814;50.872;5.306;2023-12-29T05:56:07;10.40;99.90
63435;DHT22;68814;50.872;5.306;2023-12-29T05:58:33;10.50;99.90
63435;DHT22;68814;50.872;5.306;2023-12-29T06:01:01;10.50;99.90
63435;DHT22;68814;50.872;5.306;2023-12-29T06:03:28;10.50;99.90
63435;DHT22;68814;50.872;5.306;2023-12-29T06:05:54;10.50;99.90
63435;DHT22;68814;50.872;5.306;2023-12-29T06:08:23;10.50;99.90
63435;DHT22;68814;50.872;5.306;2023-12-29T06:11:07;10.50;99.90
63435;DHT22;68814;50.872;5.306;2023-12-29T06:13:40;10.50;99.90
63435;DHT22;68814;50.872;5.306;2023-12-29T06:16:06;10.50;99.90
63435;DHT22;68814;50.872;5.306;2023-12-29T06:18:32;10.50;99.90
63435;DHT22;68814;50.872;5.306;2023-12-29T06:21:04;10.50;99.90
63435;DHT22;68814;50.872;5.306;2023-12-29T06:23:31;10.50;99.90
63435;DHT22;68814;50.872;5.306;2023-12-29T06:25:57;10.50;99.90
63435;DHT22;68814;50.872;5.306;2023-12-29T06:28:23;10.50;99.90
63435;DHT22;68814;50.872;5.306;2023-12-29T06:30:50;10.50;99.90
63435;DHT22;68814;50.872;5.306;2023-12-29T06:33:18;10.50;99.90
63435;DHT22;68814;50.872;5.306;2023-12-29T06:35:46;10.50;99.90
63435;DHT22;68814;50.872;5.306;2023-12-29T06:38:12;10.60;99.90
63435;DHT22;68814;50.872;5.306;2023-12-29T06:40:38;10.50;99.90
63435;DHT22;68814;50.872;5.306;2023-12-29T06:43:05;10.60;99.90
63435;DHT22;68814;50.872;5.306;2023-12-29T06:45:33;10.60;99.90
63435;DHT22;68814;50.872;5.306;2023-12-29T06:47:59;10.60;99.90
63435;DHT22;68814;50.872;5.306;2023-12-29T06:50:25;10.50;99.90
63435;DHT22;68814;50.872;5.306;2023-12-29T06:52:51;10.50;99.90
63435;DHT22;68814;50.872;5.306;2023-12-29T06:55:18;10.40;99.90
63435;DHT22;68814;50.872;5.306;2023-12-29T06:58:04;10.30;99.90
63435;DHT22;68814;50.872;5.306;2023-12-29T07:00:35;10.20;99.90
63435;DHT22;68814;50.872;5.306;2023-12-29T07:03:01;10.20;99.90
63435;DHT22;68814;50.872;5.306;2023-12-29T07:05:27;10.10;99.90
63435;DHT22;68814;50.872;5.306;2023-12-29T07:07:53;10.10;99.90
63435;DHT22;68814;50.872;5.306;2023-12-29T07:10:19;9.90;99.90
63435;DHT22;68814;50.872;5.306;2023-12-29T07:12:44;9.90;99.90
63435;DHT22;68814;50.872;5.306;2023-12-29T07:15:11;9.80;99.90
63435;DHT22;68814;50.872;5.306;2023-12-29T07:17:39;9.80;99.90
63435;DHT22;68814;50.872;5.306;2023-12-29T07:20:07;9.70;99.90
63435;DHT22;68814;50.872;5.306;2023-12-29T07:22:42;9.70;99.90
63435;DHT22;68814;50.872;5.306;2023-12-29T07:25:09;9.70;99.90
63435;DHT22;68814;50.872;5.306;2023-12-29T07:27:35;9.70;99.90
63435;DHT22;68814;50.872;5.306;2023-12-29T07:30:09;9.60;99.90
63435;DHT22;68814;50.872;5.306;2023-12-29T07:32:36;9.60;99.90
63435;DHT22;68814;50.872;5.306;2023-12-29T07:35:02;9.60;99.90
63435;DHT22;68814;50.872;5.306;2023-12-29T07:37:30;9.60;99.90
63435;DHT22;68814;50.872;5.306;2023-12-29T07:39:58;9.60;99.90
63435;DHT22;68814;50.872;5.306;2023-12-29T07:42:26;9.60;99.90
63435;DHT22;68814;50.872;5.306;2023-12-29T07:44:58;9.60;99.90
63435;DHT22;68814;50.872;5.306;2023-12-29T07:47:27;9.60;99.90
63435;DHT22;68814;50.872;5.306;2023-12-29T07:49:53;9.60;99.90
63435;DHT22;68814;50.872;5.306;2023-12-29T07:52:19;9.50;99.90
63435;DHT22;68814;50.872;5.306;2023-12-29T07:54:46;9.50;99.90
63435;DHT22;68814;50.872;5.306;2023-12-29T07:57:12;9.60;99.90
63435;DHT22;68814;50.872;5.306;2023-12-29T07:59:41;9.60;99.90
63435;DHT22;68814;50.872;5.306;2023-12-29T08:02:16;9.60;99.90
63435;DHT22;68814;50.872;5.306;2023-12-29T08:04:42;9.60;99.90
63435;DHT22;68814;50.872;5.306;2023-12-29T08:07:08;9.60;99.90
63435;DHT22;68814;50.872;5.306;2023-12-29T08:09:35;9.70;99.90
63435;DHT22;68814;50.872;5.306;2023-12-29T09:35:54;10.30;99.90
63435;DHT22;68814;50.872;5.306;2023-12-29T09:42:16;10.40;99.90
63435;DHT22;68814;50.872;5.306;2023-12-29T09:53:01;10.60;99.90
63435;DHT22;68814;50.872;5.306;2023-12-29T11:00:42;10.90;99.90
63435;DHT22;68814;50.872;5.306;2023-12-29T11:04:25;10.90;99.90
63435;DHT22;68814;50.872;5.306;2023-12-29T11:10:49;11.00;99.90
63435;DHT22;68814;50.872;5.306;2023-12-29T11:14:30;11.00;99.90
63435;DHT22;68814;50.872;5.306;2023-12-29T11:17:47;11.00;99.90
63435;DHT22;68814;50.872;5.306;2023-12-29T11:27:02;10.90;99.90
63435;DHT22;68814;50.872;5.306;2023-12-29T11:30:01;10.90;99.90
63435;DHT22;68814;50.872;5.306;2023-12-29T11:33:18;10.80;99.90
63435;DHT22;68814;50.872;5.306;2023-12-29T12:28:44;11.00;99.90
63435;DHT22;68814;50.872;5.306;2023-12-29T12:32:09;11.00;99.90
63435;DHT22;68814;50.872;5.306;2023-12-29T12:35:34;11.00;99.90
63435;DHT22;68814;50.872;5.306;2023-12-29T12:38:39;11.00;99.90
63435;DHT22;68814;50.872;5.306;2023-12-29T12:41:50;11.00;99.90
63435;DHT22;68814;50.872;5.306;2023-12-29T12:47:37;11.00;99.90
63435;DHT22;68814;50.872;5.306;2023-12-29T12:50:35;10.90;99.90
63435;DHT22;68814;50.872;5.306;2023-12-29T12:57:03;10.90;99.90
63435;DHT22;68814;50.872;5.306;2023-12-29T13:00:21;10.80;99.90
63435;DHT22;68814;50.872;5.306;2023-12-29T13:02:51;10.70;99.90
63435;DHT22;68814;50.872;5.306;2023-12-29T13:05:55;10.60;99.90
63435;DHT22;68814;50.872;5.306;2023-12-29T13:15:19;10.50;99.90
63435;DHT22;68814;50.872;5.306;2023-12-29T13:18:46;10.50;99.90
63435;DHT22;68814;50.872;5.306;2023-12-29T13:22:03;10.50;99.90
63435;DHT22;68814;50.872;5.306;2023-12-29T13:33:19;10.50;99.90
63435;DHT22;68814;50.872;5.306;2023-12-29T15:24:45;10.40;99.90
63435;DHT22;68814;50.872;5.306;2023-12-29T15:27:16;10.40;99.90
63435;DHT22;68814;50.872;5.306;2023-12-29T15:29:50;10.40;99.90
63435;DHT22;68814;50.872;5.306;2023-12-29T15:32:42;10.40;99.90
63435;DHT22;68814;50.872;5.306;2023-12-29T15:35:14;10.40;99.90
63435;DHT22;68814;50.872;5.306;2023-12-29T15:37:44;10.40;99.90
63435;DHT22;68814;50.872;5.306;2023-12-29T15:43:41;10.40;99.90
63435;DHT22;68814;50.872;5.306;2023-12-29T17:01:43;10.10;99.90
63435;DHT22;68814;50.872;5.306;2023-12-29T17:04:35;10.10;99.90
63435;DHT22;68814;50.872;5.306;2023-12-29T17:11:34;10.00;99.90
63435;DHT22;68814;50.872;5.306;2023-12-29T17:14:44;9.90;99.90
63435;DHT22;68814;50.872;5.306;2023-12-29T17:20:48;10.00;99.90
63435;DHT22;68814;50.872;5.306;2023-12-29T17:23:43;10.00;99.90
63435;DHT22;68814;50.872;5.306;2023-12-29T17:27:27;10.00;99.90
63435;DHT22;68814;50.872;5.306;2023-12-29T17:30:14;10.10;99.90
63435;DHT22;68814;50.872;5.306;2023-12-29T18:54:10;10.40;99.90
63435;DHT22;68814;50.872;5.306;2023-12-29T18:57:01;10.40;99.90
63435;DHT22;68814;50.872;5.306;2023-12-29T18:59:28;10.30;99.90
63435;DHT22;68814;50.872;5.306;2023-12-29T19:01:56;10.30;99.90
63435;DHT22;68814;50.872;5.306;2023-12-29T19:56:34;10.10;99.90
63435;DHT22;68814;50.872;5.306;2023-12-29T20:02:33;10.00;99.90
63435;DHT22;68814;50.872;5.306;2023-12-29T20:41:21;9.60;99.90
63435;DHT22;68814;50.872;5.306;2023-12-29T20:46:22;9.60;99.90
63435;DHT22;68814;50.872;5.306;2023-12-29T20:48:52;9.60;99.90
63435;DHT22;68814;50.872;5.306;2023-12-29T20:51:20;9.60;99.90
63435;DHT22;68814;50.872;5.306;2023-12-29T20:53:47;9.70;99.90
63435;DHT22;68814;50.872;5.306;2023-12-29T20:56:23;9.60;99.90
63435;DHT22;68814;50.872;5.306;2023-12-29T21:04:04;9.50;99.90
63435;DHT22;68814;50.872;5.306;2023-12-29T21:06:50;9.40;99.90
63435;DHT22;68814;50.872;5.306;2023-12-29T21:09:24;9.40;99.90
63435;DHT22;68814;50.872;5.306;2023-12-29T21:11:50;9.30;99.90
63435;DHT22;68814;50.872;5.306;2023-12-29T21:14:16;9.30;99.90
63435;DHT22;68814;50.872;5.306;2023-12-29T21:16:42;9.30;99.90
63435;DHT22;68814;50.872;5.306;2023-12-29T21:19:15;9.20;99.90
63435;DHT22;68814;50.872;5.306;2023-12-29T21:32:13;8.80;99.90
63435;DHT22;68814;50.872;5.306;2023-12-29T21:35:23;8.70;99.90
63435;DHT22;68814;50.872;5.306;2023-12-29T21:38:31;8.70;99.90
63435;DHT22;68814;50.872;5.306;2023-12-29T21:41:14;8.60;99.90
63435;DHT22;68814;50.872;5.306;2023-12-29T21:44:36;8.60;99.90
63435;DHT22;68814;50.872;5.306;2023-12-29T21:47:09;8.50;99.90
63435;DHT22;68814;50.872;5.306;2023-12-29T21:49:58;8.50;99.90
63435;DHT22;68814;50.872;5.306;2023-12-29T21:53:10;8.50;99.90
63435;DHT22;68814;50.872;5.306;2023-12-29T21:55:42;8.50;99.90
63435;DHT22;68814;50.872;5.306;2023-12-29T21:58:34;8.50;99.90
63435;DHT22;68814;50.872;5.306;2023-12-29T22:01:29;8.50;99.90
63435;DHT22;68814;50.872;5.306;2023-12-29T22:04:11;8.60;99.90
63435;DHT22;68814;50.872;5.306;2023-12-29T22:06:47;8.60;99.90
63435;DHT22;68814;50.872;5.306;2023-12-29T22:10:15;8.70;99.90
63435;DHT22;68814;50.872;5.306;2023-12-29T22:13:08;8.80;99.90
63435;DHT22;68814;50.872;5.306;2023-12-29T22:15:45;8.90;99.90
63435;DHT22;68814;50.872;5.306;2023-12-29T22:18:24;8.90;99.90
63435;DHT22;68814;50.872;5.306;2023-12-29T22:20:56;9.00;99.90
63435;DHT22;68814;50.872;5.306;2023-12-29T22:23:39;9.00;99.90
63435;DHT22;68814;50.872;5.306;2023-12-29T22:26:14;9.00;99.90
63435;DHT22;68814;50.872;5.306;2023-12-29T22:28:53;9.00;99.90
63435;DHT22;68814;50.872;5.306;2023-12-29T22:31:41;9.10;99.90
63435;DHT22;68814;50.872;5.306;2023-12-29T22:34:08;9.10;99.90
63435;DHT22;68814;50.872;5.306;2023-12-29T22:37:07;9.10;99.90
63435;DHT22;68814;50.872;5.306;2023-12-29T22:39:40;9.10;99.90
63435;DHT22;68814;50.872;5.306;2023-12-29T22:42:08;9.10;99.90
63435;DHT22;68814;50.872;5.306;2023-12-29T22:44:45;9.10;99.90
63435;DHT22;68814;50.872;5.306;2023-12-29T22:47:33;9.00;99.90
63435;DHT22;68814;50.872;5.306;2023-12-29T22:50:12;9.00;99.90
63435;DHT22;68814;50.872;5.306;2023-12-29T22:53:07;9.00;99.90
63435;DHT22;68814;50.872;5.306;2023-12-29T22:56:11;9.00;99.90
63435;DHT22;68814;50.872;5.306;2023-12-29T22:58:42;9.00;99.90
63435;DHT22;68814;50.872;5.306;2023-12-29T23:01:22;9.00;99.90
63435;DHT22;68814;50.872;5.306;2023-12-29T23:04:16;8.90;99.90
63435;DHT22;68814;50.872;5.306;2023-12-29T23:06:59;8.90;99.90
63435;DHT22;68814;50.872;5.306;2023-12-29T23:09:41;8.90;99.90
63435;DHT22;68814;50.872;5.306;2023-12-29T23:12:12;9.00;99.90
63435;DHT22;68814;50.872;5.306;2023-12-29T23:14:41;8.90;99.90
63435;DHT22;68814;50.872;5.306;2023-12-29T23:17:20;8.90;99.90
63435;DHT22;68814;50.872;5.306;2023-12-29T23:19:52;8.90;99.90
63435;DHT22;68814;50.872;5.306;2023-12-29T23:22:36;8.90;99.90
63435;DHT22;68814;50.872;5.306;2023-12-29T23:25:25;9.00;99.90
63435;DHT22;68814;50.872;5.306;2023-12-29T23:28:48;8.90;99.90
63435;DHT22;68814;50.872;5.306;2023-12-29T23:31:18;8.90;99.90
63435;DHT22;68814;50.872;5.306;2023-12-29T23:33:47;8.90;99.90
63435;DHT22;68814;50.872;5.306;2023-12-29T23:36:20;8.90;99.90
63435;DHT22;68814;50.872;5.306;2023-12-29T23:38:48;8.90;99.90
63435;DHT22;68814;50.872;5.306;2023-12-29T23:41:17;8.90;99.90
63435;DHT22;68814;50.872;5.306;2023-12-29T23:44:18;8.90;99.90
63435;DHT22;68814;50.872;5.306;2023-12-29T23:46:50;8.90;99.90
63435;DHT22;68814;50.872;5.306;2023-12-29T23:49:23;8.90;99.90
63435;DHT22;68814;50.872;5.306;2023-12-29T23:51:56;8.90;99.90
63435;DHT22;68814;50.872;5.306;2023-12-29T23:54:29;8.80;99.90
63435;DHT22;68814;50.872;5.306;2023-12-29T23:57:11;8.90;99.90
63435;DHT22;68814;50.872;5.306;2023-12-29T23:59:41;8.90;99.90
